sensor_id;sensor_type;location;lat;lon;timestamp;temperature;humidity
20492;DHT22;10404;51.468;6.762;2023-11-22T00:01:10;6.60;83.10
20492;DHT22;10404;51.468;6.762;2023-11-22T00:03:36;6.60;83.00
20492;DHT22;10404;51.468;6.762;2023-11-22T00:06:02;6.60;83.20
20492;DHT22;10404;51.468;6.762;2023-11-22T00:08:27;6.60;83.30
20492;DHT22;10404;51.468;6.762;2023-11-22T00:10:54;6.60;83.30
20492;DHT22;10404;51.468;6.762;2023-11-22T00:13:20;6.60;83.20
20492;DHT22;10404;51.468;6.762;2023-11-22T00:15:46;6.60;83.20
20492;DHT22;10404;51.468;6.762;2023-11-22T00:18:11;6.60;83.20
20492;DHT22;10404;51.468;6.762;2023-11-22T00:20:37;6.50;83.20
20492;DHT22;10404;51.468;6.762;2023-11-22T00:23:02;6.50;83.20
20492;DHT22;10404;51.468;6.762;2023-11-22T00:25:31;6.50;83.20
20492;DHT22;10404;51.468;6.762;2023-11-22T00:27:56;6.50;83.20
20492;DHT22;10404;51.468;6.762;2023-11-22T00:30:22;6.50;83.20
20492;DHT22;10404;51.468;6.762;2023-11-22T00:32:48;6.50;83.30
20492;DHT22;10404;51.468;6.762;2023-11-22T00:35:14;6.50;83.20
20492;DHT22;10404;51.468;6.762;2023-11-22T00:37:40;6.50;83.20
20492;DHT22;10404;51.468;6.762;2023-11-22T00:40:06;6.40;83.20
20492;DHT22;10404;51.468;6.762;2023-11-22T00:42:39;6.40;83.20
20492;DHT22;10404;51.468;6.762;2023-11-22T00:45:08;6.40;83.30
20492;DHT22;10404;51.468;6.762;2023-11-22T00:47:35;6.40;83.20
20492;DHT22;10404;51.468;6.762;2023-11-22T00:50:01;6.40;83.20
20492;DHT22;10404;51.468;6.762;2023-11-22T00:52:28;6.30;83.20
20492;DHT22;10404;51.468;6.762;2023-11-22T00:54:54;6.30;83.20
20492;DHT22;10404;51.468;6.762;2023-11-22T00:57:20;6.30;83.10
20492;DHT22;10404;51.468;6.762;2023-11-22T00:59:45;6.30;83.00
20492;DHT22;10404;51.468;6.762;2023-11-22T01:02:11;6.30;83.00
20492;DHT22;10404;51.468;6.762;2023-11-22T01:04:36;6.30;83.00
20492;DHT22;10404;51.468;6.762;2023-11-22T01:07:03;6.20;83.00
20492;DHT22;10404;51.468;6.762;2023-11-22T01:09:32;6.20;83.00
20492;DHT22;10404;51.468;6.762;2023-11-22T01:11:58;6.20;83.10
20492;DHT22;10404;51.468;6.762;2023-11-22T01:14:24;6.10;83.10
20492;DHT22;10404;51.468;6.762;2023-11-22T01:16:51;6.10;83.10
20492;DHT22;10404;51.468;6.762;2023-11-22T01:19:16;6.10;83.10
20492;DHT22;10404;51.468;6.762;2023-11-22T01:21:42;6.10;83.10
20492;DHT22;10404;51.468;6.762;2023-11-22T01:24:08;6.10;83.20
20492;DHT22;10404;51.468;6.762;2023-11-22T01:26:33;6.00;83.30
20492;DHT22;10404;51.468;6.762;2023-11-22T01:29:00;6.00;83.10
20492;DHT22;10404;51.468;6.762;2023-11-22T01:31:26;6.00;83.00
20492;DHT22;10404;51.468;6.762;2023-11-22T01:33:53;6.00;83.10
20492;DHT22;10404;51.468;6.762;2023-11-22T01:36:19;6.00;83.20
20492;DHT22;10404;51.468;6.762;2023-11-22T01:38:45;5.90;83.10
20492;DHT22;10404;51.468;6.762;2023-11-22T01:41:12;5.90;83.20
20492;DHT22;10404;51.468;6.762;2023-11-22T01:43:39;5.90;83.00
20492;DHT22;10404;51.468;6.762;2023-11-22T01:46:08;5.90;83.10
20492;DHT22;10404;51.468;6.762;2023-11-22T01:48:35;5.90;83.00
20492;DHT22;10404;51.468;6.762;2023-11-22T01:51:02;5.80;82.80
20492;DHT22;10404;51.468;6.762;2023-11-22T01:53:28;5.80;82.90
20492;DHT22;10404;51.468;6.762;2023-11-22T01:55:54;5.80;82.90
20492;DHT22;10404;51.468;6.762;2023-11-22T01:58:20;5.80;82.90
20492;DHT22;10404;51.468;6.762;2023-11-22T02:00:49;5.70;83.00
20492;DHT22;10404;51.468;6.762;2023-11-22T02:03:15;5.70;82.90
20492;DHT22;10404;51.468;6.762;2023-11-22T02:05:44;5.70;82.90
20492;DHT22;10404;51.468;6.762;2023-11-22T02:08:11;5.70;82.80
20492;DHT22;10404;51.468;6.762;2023-11-22T02:10:37;5.70;82.80
20492;DHT22;10404;51.468;6.762;2023-11-22T02:13:04;5.60;82.90
20492;DHT22;10404;51.468;6.762;2023-11-22T02:15:31;5.60;82.90
20492;DHT22;10404;51.468;6.762;2023-11-22T02:17:57;5.60;82.90
20492;DHT22;10404;51.468;6.762;2023-11-22T02:20:23;5.60;82.80
20492;DHT22;10404;51.468;6.762;2023-11-22T02:22:48;5.50;82.60
20492;DHT22;10404;51.468;6.762;2023-11-22T02:25:15;5.50;82.60
20492;DHT22;10404;51.468;6.762;2023-11-22T02:27:41;5.50;82.70
20492;DHT22;10404;51.468;6.762;2023-11-22T02:30:08;5.50;82.70
20492;DHT22;10404;51.468;6.762;2023-11-22T02:32:34;5.50;82.60
20492;DHT22;10404;51.468;6.762;2023-11-22T02:34:59;5.40;82.80
20492;DHT22;10404;51.468;6.762;2023-11-22T02:37:26;5.40;82.70
20492;DHT22;10404;51.468;6.762;2023-11-22T02:40:02;5.30;82.70
20492;DHT22;10404;51.468;6.762;2023-11-22T02:42:30;5.30;82.60
20492;DHT22;10404;51.468;6.762;2023-11-22T02:44:55;5.30;82.80
20492;DHT22;10404;51.468;6.762;2023-11-22T02:47:22;5.30;82.70
20492;DHT22;10404;51.468;6.762;2023-11-22T02:49:47;5.30;82.70
20492;DHT22;10404;51.468;6.762;2023-11-22T02:52:13;5.30;82.60
20492;DHT22;10404;51.468;6.762;2023-11-22T02:54:44;5.30;82.60
20492;DHT22;10404;51.468;6.762;2023-11-22T02:57:12;5.20;82.50
20492;DHT22;10404;51.468;6.762;2023-11-22T02:59:44;5.20;82.50
20492;DHT22;10404;51.468;6.762;2023-11-22T03:02:10;5.10;82.50
20492;DHT22;10404;51.468;6.762;2023-11-22T03:04:37;5.10;82.50
20492;DHT22;10404;51.468;6.762;2023-11-22T03:07:03;5.10;82.50
20492;DHT22;10404;51.468;6.762;2023-11-22T03:09:28;5.10;82.60
20492;DHT22;10404;51.468;6.762;2023-11-22T03:11:55;5.10;82.50
20492;DHT22;10404;51.468;6.762;2023-11-22T03:14:20;5.00;82.60
20492;DHT22;10404;51.468;6.762;2023-11-22T03:16:47;5.00;82.40
20492;DHT22;10404;51.468;6.762;2023-11-22T03:19:13;5.00;82.50
20492;DHT22;10404;51.468;6.762;2023-11-22T03:21:40;5.00;82.70
20492;DHT22;10404;51.468;6.762;2023-11-22T03:24:07;5.00;82.50
20492;DHT22;10404;51.468;6.762;2023-11-22T03:26:34;4.90;82.50
20492;DHT22;10404;51.468;6.762;2023-11-22T03:29:00;4.90;82.50
20492;DHT22;10404;51.468;6.762;2023-11-22T03:31:26;4.90;82.30
20492;DHT22;10404;51.468;6.762;2023-11-22T03:33:52;4.90;82.30
20492;DHT22;10404;51.468;6.762;2023-11-22T03:36:20;4.80;82.30
20492;DHT22;10404;51.468;6.762;2023-11-22T03:38:45;4.80;82.30
20492;DHT22;10404;51.468;6.762;2023-11-22T03:41:11;4.80;82.20
20492;DHT22;10404;51.468;6.762;2023-11-22T03:43:37;4.70;82.30
20492;DHT22;10404;51.468;6.762;2023-11-22T03:46:02;4.70;82.50
20492;DHT22;10404;51.468;6.762;2023-11-22T03:48:28;4.70;82.50
20492;DHT22;10404;51.468;6.762;2023-11-22T03:50:54;4.70;82.50
20492;DHT22;10404;51.468;6.762;2023-11-22T03:53:19;4.70;82.50
20492;DHT22;10404;51.468;6.762;2023-11-22T03:55:48;4.70;82.70
20492;DHT22;10404;51.468;6.762;2023-11-22T03:58:15;4.60;82.40
20492;DHT22;10404;51.468;6.762;2023-11-22T04:00:41;4.60;82.40
20492;DHT22;10404;51.468;6.762;2023-11-22T04:03:06;4.60;82.40
20492;DHT22;10404;51.468;6.762;2023-11-22T04:05:32;4.50;82.40
20492;DHT22;10404;51.468;6.762;2023-11-22T04:07:58;4.50;82.30
20492;DHT22;10404;51.468;6.762;2023-11-22T04:10:23;4.50;82.20
20492;DHT22;10404;51.468;6.762;2023-11-22T04:12:49;4.50;82.30
20492;DHT22;10404;51.468;6.762;2023-11-22T04:15:15;4.50;82.30
20492;DHT22;10404;51.468;6.762;2023-11-22T04:17:41;4.50;82.30
20492;DHT22;10404;51.468;6.762;2023-11-22T04:20:08;4.40;82.30
20492;DHT22;10404;51.468;6.762;2023-11-22T04:22:44;4.40;82.30
20492;DHT22;10404;51.468;6.762;2023-11-22T04:25:12;4.40;82.30
20492;DHT22;10404;51.468;6.762;2023-11-22T04:27:41;4.40;82.10
20492;DHT22;10404;51.468;6.762;2023-11-22T04:30:08;4.40;82.00
20492;DHT22;10404;51.468;6.762;2023-11-22T04:32:35;4.40;81.90
20492;DHT22;10404;51.468;6.762;2023-11-22T04:35:02;4.30;82.10
20492;DHT22;10404;51.468;6.762;2023-11-22T04:37:29;4.30;82.10
20492;DHT22;10404;51.468;6.762;2023-11-22T04:39:58;4.30;82.30
20492;DHT22;10404;51.468;6.762;2023-11-22T04:42:23;4.30;82.10
20492;DHT22;10404;51.468;6.762;2023-11-22T04:44:49;4.20;82.10
20492;DHT22;10404;51.468;6.762;2023-11-22T04:47:14;4.20;82.10
20492;DHT22;10404;51.468;6.762;2023-11-22T04:49:40;4.20;82.20
20492;DHT22;10404;51.468;6.762;2023-11-22T04:52:06;4.20;82.20
20492;DHT22;10404;51.468;6.762;2023-11-22T04:54:31;4.20;82.20
20492;DHT22;10404;51.468;6.762;2023-11-22T04:56:58;4.20;82.10
20492;DHT22;10404;51.468;6.762;2023-11-22T04:59:24;4.10;82.10
20492;DHT22;10404;51.468;6.762;2023-11-22T05:01:49;4.10;82.10
20492;DHT22;10404;51.468;6.762;2023-11-22T05:04:15;4.10;82.10
20492;DHT22;10404;51.468;6.762;2023-11-22T05:06:40;4.00;82.10
20492;DHT22;10404;51.468;6.762;2023-11-22T05:09:06;4.00;82.10
20492;DHT22;10404;51.468;6.762;2023-11-22T05:11:32;4.00;82.00
20492;DHT22;10404;51.468;6.762;2023-11-22T05:13:57;4.00;82.20
20492;DHT22;10404;51.468;6.762;2023-11-22T05:16:23;4.00;82.20
20492;DHT22;10404;51.468;6.762;2023-11-22T05:18:49;3.90;82.20
20492;DHT22;10404;51.468;6.762;2023-11-22T05:21:15;3.90;82.20
20492;DHT22;10404;51.468;6.762;2023-11-22T05:23:41;3.90;82.20
20492;DHT22;10404;51.468;6.762;2023-11-22T05:26:07;3.90;82.20
20492;DHT22;10404;51.468;6.762;2023-11-22T05:28:34;3.90;82.20
20492;DHT22;10404;51.468;6.762;2023-11-22T05:30:59;3.90;82.20
20492;DHT22;10404;51.468;6.762;2023-11-22T05:33:25;3.90;82.10
20492;DHT22;10404;51.468;6.762;2023-11-22T05:35:50;3.90;82.20
20492;DHT22;10404;51.468;6.762;2023-11-22T05:38:16;3.80;82.10
20492;DHT22;10404;51.468;6.762;2023-11-22T05:40:42;3.80;82.10
20492;DHT22;10404;51.468;6.762;2023-11-22T05:43:08;3.80;82.10
20492;DHT22;10404;51.468;6.762;2023-11-22T05:45:35;3.70;82.00
20492;DHT22;10404;51.468;6.762;2023-11-22T05:48:01;3.70;82.00
20492;DHT22;10404;51.468;6.762;2023-11-22T05:50:26;3.70;82.00
20492;DHT22;10404;51.468;6.762;2023-11-22T05:52:52;3.70;82.00
20492;DHT22;10404;51.468;6.762;2023-11-22T05:55:18;3.60;82.00
20492;DHT22;10404;51.468;6.762;2023-11-22T05:57:44;3.60;82.00
20492;DHT22;10404;51.468;6.762;2023-11-22T06:00:10;3.60;82.00
20492;DHT22;10404;51.468;6.762;2023-11-22T06:02:36;3.60;82.00
20492;DHT22;10404;51.468;6.762;2023-11-22T06:05:05;3.60;81.90
20492;DHT22;10404;51.468;6.762;2023-11-22T06:07:34;3.50;82.00
20492;DHT22;10404;51.468;6.762;2023-11-22T06:10:00;3.50;82.00
20492;DHT22;10404;51.468;6.762;2023-11-22T06:12:28;3.50;82.00
20492;DHT22;10404;51.468;6.762;2023-11-22T06:14:54;3.50;82.00
20492;DHT22;10404;51.468;6.762;2023-11-22T06:17:19;3.50;82.00
20492;DHT22;10404;51.468;6.762;2023-11-22T06:19:45;3.50;82.10
20492;DHT22;10404;51.468;6.762;2023-11-22T06:22:11;3.50;82.20
20492;DHT22;10404;51.468;6.762;2023-11-22T06:24:36;3.50;82.10
20492;DHT22;10404;51.468;6.762;2023-11-22T06:27:02;3.40;82.00
20492;DHT22;10404;51.468;6.762;2023-11-22T06:29:29;3.40;82.00
20492;DHT22;10404;51.468;6.762;2023-11-22T06:31:55;3.40;81.90
20492;DHT22;10404;51.468;6.762;2023-11-22T06:34:20;3.30;81.90
20492;DHT22;10404;51.468;6.762;2023-11-22T06:36:46;3.30;81.90
20492;DHT22;10404;51.468;6.762;2023-11-22T06:39:11;3.30;81.70
20492;DHT22;10404;51.468;6.762;2023-11-22T06:41:41;3.30;81.90
20492;DHT22;10404;51.468;6.762;2023-11-22T06:44:06;3.30;81.90
20492;DHT22;10404;51.468;6.762;2023-11-22T06:46:32;3.20;81.90
20492;DHT22;10404;51.468;6.762;2023-11-22T06:48:58;3.20;81.80
20492;DHT22;10404;51.468;6.762;2023-11-22T06:51:24;3.20;81.80
20492;DHT22;10404;51.468;6.762;2023-11-22T06:53:49;3.20;81.80
20492;DHT22;10404;51.468;6.762;2023-11-22T06:56:17;3.10;81.70
20492;DHT22;10404;51.468;6.762;2023-11-22T06:58:43;3.10;81.70
20492;DHT22;10404;51.468;6.762;2023-11-22T07:01:08;3.10;81.60
20492;DHT22;10404;51.468;6.762;2023-11-22T07:03:36;3.10;81.70
20492;DHT22;10404;51.468;6.762;2023-11-22T07:06:03;3.10;81.80
20492;DHT22;10404;51.468;6.762;2023-11-22T07:08:30;3.10;81.70
20492;DHT22;10404;51.468;6.762;2023-11-22T07:10:56;3.10;81.80
20492;DHT22;10404;51.468;6.762;2023-11-22T07:13:25;3.00;81.70
20492;DHT22;10404;51.468;6.762;2023-11-22T07:15:52;3.00;81.70
20492;DHT22;10404;51.468;6.762;2023-11-22T07:18:19;3.00;81.70
20492;DHT22;10404;51.468;6.762;2023-11-22T07:20:45;3.00;81.60
20492;DHT22;10404;51.468;6.762;2023-11-22T07:23:13;3.00;81.70
20492;DHT22;10404;51.468;6.762;2023-11-22T07:25:40;2.90;81.70
20492;DHT22;10404;51.468;6.762;2023-11-22T07:28:06;2.90;81.70
20492;DHT22;10404;51.468;6.762;2023-11-22T07:30:32;2.90;81.70
20492;DHT22;10404;51.468;6.762;2023-11-22T07:32:59;2.90;81.60
20492;DHT22;10404;51.468;6.762;2023-11-22T07:35:24;2.80;81.50
20492;DHT22;10404;51.468;6.762;2023-11-22T07:37:51;2.80;81.70
20492;DHT22;10404;51.468;6.762;2023-11-22T07:40:17;2.80;81.70
20492;DHT22;10404;51.468;6.762;2023-11-22T07:42:44;2.80;81.60
20492;DHT22;10404;51.468;6.762;2023-11-22T07:45:10;2.80;81.70
20492;DHT22;10404;51.468;6.762;2023-11-22T07:47:37;2.70;81.70
20492;DHT22;10404;51.468;6.762;2023-11-22T07:50:08;2.70;81.80
20492;DHT22;10404;51.468;6.762;2023-11-22T07:52:33;2.70;81.70
20492;DHT22;10404;51.468;6.762;2023-11-22T07:54:59;2.70;81.80
20492;DHT22;10404;51.468;6.762;2023-11-22T07:57:25;2.70;81.70
20492;DHT22;10404;51.468;6.762;2023-11-22T07:59:51;2.70;81.60
20492;DHT22;10404;51.468;6.762;2023-11-22T08:02:21;2.70;81.60
20492;DHT22;10404;51.468;6.762;2023-11-22T08:04:46;2.70;81.60
20492;DHT22;10404;51.468;6.762;2023-11-22T08:07:13;2.70;81.70
20492;DHT22;10404;51.468;6.762;2023-11-22T08:09:42;2.60;81.70
20492;DHT22;10404;51.468;6.762;2023-11-22T08:12:08;2.60;81.90
20492;DHT22;10404;51.468;6.762;2023-11-22T08:14:37;2.60;81.80
20492;DHT22;10404;51.468;6.762;2023-11-22T08:17:03;2.60;81.80
20492;DHT22;10404;51.468;6.762;2023-11-22T08:19:29;2.50;82.00
20492;DHT22;10404;51.468;6.762;2023-11-22T08:21:55;2.50;81.80
20492;DHT22;10404;51.468;6.762;2023-11-22T08:24:20;2.60;81.90
20492;DHT22;10404;51.468;6.762;2023-11-22T08:26:46;2.50;81.80
20492;DHT22;10404;51.468;6.762;2023-11-22T08:29:12;2.50;81.80
20492;DHT22;10404;51.468;6.762;2023-11-22T08:31:37;2.50;81.70
20492;DHT22;10404;51.468;6.762;2023-11-22T08:34:03;2.50;81.80
20492;DHT22;10404;51.468;6.762;2023-11-22T08:36:33;2.60;81.60
20492;DHT22;10404;51.468;6.762;2023-11-22T08:39:00;2.50;81.40
20492;DHT22;10404;51.468;6.762;2023-11-22T08:41:29;2.50;81.60
20492;DHT22;10404;51.468;6.762;2023-11-22T08:43:56;2.50;81.60
20492;DHT22;10404;51.468;6.762;2023-11-22T08:46:22;2.50;81.90
20492;DHT22;10404;51.468;6.762;2023-11-22T08:48:49;2.50;81.70
20492;DHT22;10404;51.468;6.762;2023-11-22T08:51:16;2.50;82.00
20492;DHT22;10404;51.468;6.762;2023-11-22T08:53:42;2.50;81.80
20492;DHT22;10404;51.468;6.762;2023-11-22T08:56:10;2.50;81.70
20492;DHT22;10404;51.468;6.762;2023-11-22T08:58:39;2.50;81.50
20492;DHT22;10404;51.468;6.762;2023-11-22T09:01:06;2.50;81.50
20492;DHT22;10404;51.468;6.762;2023-11-22T09:03:33;2.50;81.50
20492;DHT22;10404;51.468;6.762;2023-11-22T09:05:58;2.50;81.60
20492;DHT22;10404;51.468;6.762;2023-11-22T09:08:25;2.50;81.50
20492;DHT22;10404;51.468;6.762;2023-11-22T09:10:51;2.50;81.50
20492;DHT22;10404;51.468;6.762;2023-11-22T09:13:16;2.50;81.50
20492;DHT22;10404;51.468;6.762;2023-11-22T09:15:43;2.50;81.40
20492;DHT22;10404;51.468;6.762;2023-11-22T09:18:13;2.50;81.30
20492;DHT22;10404;51.468;6.762;2023-11-22T09:20:39;2.50;81.10
20492;DHT22;10404;51.468;6.762;2023-11-22T09:23:06;2.60;80.90
20492;DHT22;10404;51.468;6.762;2023-11-22T09:25:31;2.50;81.00
20492;DHT22;10404;51.468;6.762;2023-11-22T09:27:59;2.50;81.20
20492;DHT22;10404;51.468;6.762;2023-11-22T09:30:27;2.50;81.20
20492;DHT22;10404;51.468;6.762;2023-11-22T09:33:07;2.50;81.20
20492;DHT22;10404;51.468;6.762;2023-11-22T09:35:35;2.50;81.10
20492;DHT22;10404;51.468;6.762;2023-11-22T09:38:02;2.50;81.00
20492;DHT22;10404;51.468;6.762;2023-11-22T09:40:28;2.50;81.30
20492;DHT22;10404;51.468;6.762;2023-11-22T09:43:02;2.50;81.40
20492;DHT22;10404;51.468;6.762;2023-11-22T09:45:28;2.50;81.40
20492;DHT22;10404;51.468;6.762;2023-11-22T09:47:57;2.50;81.50
20492;DHT22;10404;51.468;6.762;2023-11-22T09:50:34;2.50;81.60
20492;DHT22;10404;51.468;6.762;2023-11-22T09:53:02;2.50;81.70
20492;DHT22;10404;51.468;6.762;2023-11-22T09:55:30;2.50;81.80
20492;DHT22;10404;51.468;6.762;2023-11-22T09:57:59;2.50;82.00
20492;DHT22;10404;51.468;6.762;2023-11-22T10:00:28;2.50;82.20
20492;DHT22;10404;51.468;6.762;2023-11-22T10:02:56;2.50;82.30
20492;DHT22;10404;51.468;6.762;2023-11-22T10:05:23;2.50;82.60
20492;DHT22;10404;51.468;6.762;2023-11-22T10:07:48;2.50;82.60
20492;DHT22;10404;51.468;6.762;2023-11-22T10:10:15;2.50;82.60
20492;DHT22;10404;51.468;6.762;2023-11-22T10:12:43;2.50;82.70
20492;DHT22;10404;51.468;6.762;2023-11-22T10:15:16;2.50;82.80
20492;DHT22;10404;51.468;6.762;2023-11-22T10:17:58;2.50;82.80
20492;DHT22;10404;51.468;6.762;2023-11-22T10:23:11;2.50;82.90
20492;DHT22;10404;51.468;6.762;2023-11-22T10:25:49;2.60;82.90
20492;DHT22;10404;51.468;6.762;2023-11-22T10:28:21;2.60;83.10
20492;DHT22;10404;51.468;6.762;2023-11-22T10:30:48;2.60;83.00
20492;DHT22;10404;51.468;6.762;2023-11-22T10:33:16;2.70;83.10
20492;DHT22;10404;51.468;6.762;2023-11-22T10:35:45;2.70;83.20
20492;DHT22;10404;51.468;6.762;2023-11-22T10:38:15;2.70;83.20
20492;DHT22;10404;51.468;6.762;2023-11-22T10:40:41;2.70;83.30
20492;DHT22;10404;51.468;6.762;2023-11-22T10:43:11;2.80;83.40
20492;DHT22;10404;51.468;6.762;2023-11-22T10:45:37;2.80;83.30
20492;DHT22;10404;51.468;6.762;2023-11-22T10:48:04;2.80;83.40
20492;DHT22;10404;51.468;6.762;2023-11-22T10:50:30;2.80;83.30
20492;DHT22;10404;51.468;6.762;2023-11-22T10:53:01;2.90;83.50
20492;DHT22;10404;51.468;6.762;2023-11-22T10:55:32;2.90;83.50
20492;DHT22;10404;51.468;6.762;2023-11-22T10:58:02;2.90;83.60
20492;DHT22;10404;51.468;6.762;2023-11-22T11:00:33;2.90;83.50
20492;DHT22;10404;51.468;6.762;2023-11-22T11:03:01;3.00;83.50
20492;DHT22;10404;51.468;6.762;2023-11-22T11:05:30;3.00;83.40
20492;DHT22;10404;51.468;6.762;2023-11-22T11:08:08;3.00;83.60
20492;DHT22;10404;51.468;6.762;2023-11-22T11:10:41;3.10;83.50
20492;DHT22;10404;51.468;6.762;2023-11-22T11:13:11;3.10;83.20
20492;DHT22;10404;51.468;6.762;2023-11-22T11:15:38;3.10;83.30
20492;DHT22;10404;51.468;6.762;2023-11-22T11:18:06;3.10;83.20
20492;DHT22;10404;51.468;6.762;2023-11-22T11:20:58;3.10;83.10
20492;DHT22;10404;51.468;6.762;2023-11-22T11:23:26;3.20;83.10
20492;DHT22;10404;51.468;6.762;2023-11-22T11:25:56;3.30;83.30
20492;DHT22;10404;51.468;6.762;2023-11-22T11:28:25;3.30;83.40
20492;DHT22;10404;51.468;6.762;2023-11-22T11:30:53;3.30;83.30
20492;DHT22;10404;51.468;6.762;2023-11-22T11:35:51;3.30;83.60
20492;DHT22;10404;51.468;6.762;2023-11-22T11:38:21;3.40;83.60
20492;DHT22;10404;51.468;6.762;2023-11-22T11:40:51;3.40;83.50
20492;DHT22;10404;51.468;6.762;2023-11-22T11:43:39;3.40;83.70
20492;DHT22;10404;51.468;6.762;2023-11-22T11:46:07;3.50;83.70
20492;DHT22;10404;51.468;6.762;2023-11-22T11:48:33;3.50;83.80
20492;DHT22;10404;51.468;6.762;2023-11-22T11:51:00;3.50;83.70
20492;DHT22;10404;51.468;6.762;2023-11-22T11:53:27;3.50;83.80
20492;DHT22;10404;51.468;6.762;2023-11-22T11:55:54;3.60;83.60
20492;DHT22;10404;51.468;6.762;2023-11-22T11:58:19;3.60;83.50
20492;DHT22;10404;51.468;6.762;2023-11-22T12:00:45;3.60;83.50
20492;DHT22;10404;51.468;6.762;2023-11-22T12:03:11;3.70;83.40
20492;DHT22;10404;51.468;6.762;2023-11-22T12:05:40;3.70;83.40
20492;DHT22;10404;51.468;6.762;2023-11-22T12:08:05;3.70;83.70
20492;DHT22;10404;51.468;6.762;2023-11-22T12:10:31;3.70;83.60
20492;DHT22;10404;51.468;6.762;2023-11-22T12:12:57;3.80;83.70
20492;DHT22;10404;51.468;6.762;2023-11-22T12:15:24;3.70;83.50
20492;DHT22;10404;51.468;6.762;2023-11-22T12:17:50;3.80;83.20
20492;DHT22;10404;51.468;6.762;2023-11-22T12:20:22;3.80;83.20
20492;DHT22;10404;51.468;6.762;2023-11-22T12:22:48;3.90;83.40
20492;DHT22;10404;51.468;6.762;2023-11-22T12:25:14;3.90;82.90
20492;DHT22;10404;51.468;6.762;2023-11-22T12:27:41;3.90;83.20
20492;DHT22;10404;51.468;6.762;2023-11-22T12:30:08;3.90;82.60
20492;DHT22;10404;51.468;6.762;2023-11-22T12:32:34;3.90;82.60
20492;DHT22;10404;51.468;6.762;2023-11-22T12:34:59;4.00;82.80
20492;DHT22;10404;51.468;6.762;2023-11-22T12:37:27;4.00;83.00
20492;DHT22;10404;51.468;6.762;2023-11-22T12:39:54;4.10;82.30
20492;DHT22;10404;51.468;6.762;2023-11-22T12:42:20;4.20;81.60
20492;DHT22;10404;51.468;6.762;2023-11-22T12:44:50;4.20;81.60
20492;DHT22;10404;51.468;6.762;2023-11-22T12:47:31;4.20;81.60
20492;DHT22;10404;51.468;6.762;2023-11-22T12:50:00;4.30;81.50
20492;DHT22;10404;51.468;6.762;2023-11-22T12:52:26;4.40;81.00
20492;DHT22;10404;51.468;6.762;2023-11-22T12:54:52;4.50;80.50
20492;DHT22;10404;51.468;6.762;2023-11-22T12:57:18;4.60;80.50
20492;DHT22;10404;51.468;6.762;2023-11-22T12:59:44;4.70;80.00
20492;DHT22;10404;51.468;6.762;2023-11-22T13:02:10;4.70;80.20
20492;DHT22;10404;51.468;6.762;2023-11-22T13:04:35;4.90;79.70
20492;DHT22;10404;51.468;6.762;2023-11-22T13:07:01;4.90;79.80
20492;DHT22;10404;51.468;6.762;2023-11-22T13:09:27;5.00;79.60
20492;DHT22;10404;51.468;6.762;2023-11-22T13:11:52;5.00;79.70
20492;DHT22;10404;51.468;6.762;2023-11-22T13:14:18;5.00;79.30
20492;DHT22;10404;51.468;6.762;2023-11-22T13:16:44;5.10;79.10
20492;DHT22;10404;51.468;6.762;2023-11-22T13:19:10;5.20;79.40
20492;DHT22;10404;51.468;6.762;2023-11-22T13:21:36;5.30;80.20
20492;DHT22;10404;51.468;6.762;2023-11-22T13:24:02;5.30;79.70
20492;DHT22;10404;51.468;6.762;2023-11-22T13:26:29;5.30;78.90
20492;DHT22;10404;51.468;6.762;2023-11-22T13:28:55;5.40;79.60
20492;DHT22;10404;51.468;6.762;2023-11-22T13:31:21;5.40;79.10
20492;DHT22;10404;51.468;6.762;2023-11-22T13:33:47;5.50;78.90
20492;DHT22;10404;51.468;6.762;2023-11-22T13:36:13;5.50;78.70
20492;DHT22;10404;51.468;6.762;2023-11-22T13:38:40;5.50;79.00
20492;DHT22;10404;51.468;6.762;2023-11-22T13:41:06;5.50;79.40
20492;DHT22;10404;51.468;6.762;2023-11-22T13:43:31;5.50;78.70
20492;DHT22;10404;51.468;6.762;2023-11-22T13:45:58;5.60;79.40
20492;DHT22;10404;51.468;6.762;2023-11-22T13:48:25;5.60;79.00
20492;DHT22;10404;51.468;6.762;2023-11-22T13:50:51;5.60;78.80
20492;DHT22;10404;51.468;6.762;2023-11-22T13:53:16;5.60;78.80
20492;DHT22;10404;51.468;6.762;2023-11-22T13:55:46;5.70;78.60
20492;DHT22;10404;51.468;6.762;2023-11-22T13:58:12;5.70;78.60
20492;DHT22;10404;51.468;6.762;2023-11-22T14:00:38;5.70;78.40
20492;DHT22;10404;51.468;6.762;2023-11-22T14:03:04;5.70;78.40
20492;DHT22;10404;51.468;6.762;2023-11-22T14:05:34;5.70;78.50
20492;DHT22;10404;51.468;6.762;2023-11-22T14:08:02;5.70;79.00
20492;DHT22;10404;51.468;6.762;2023-11-22T14:10:27;5.70;78.70
20492;DHT22;10404;51.468;6.762;2023-11-22T14:12:54;5.70;78.60
20492;DHT22;10404;51.468;6.762;2023-11-22T14:15:19;5.70;78.60
20492;DHT22;10404;51.468;6.762;2023-11-22T14:17:45;5.70;78.50
20492;DHT22;10404;51.468;6.762;2023-11-22T14:20:15;5.70;78.60
20492;DHT22;10404;51.468;6.762;2023-11-22T14:22:40;5.70;78.70
20492;DHT22;10404;51.468;6.762;2023-11-22T14:25:08;5.70;78.70
20492;DHT22;10404;51.468;6.762;2023-11-22T14:27:44;5.80;78.70
20492;DHT22;10404;51.468;6.762;2023-11-22T14:30:11;5.70;78.70
20492;DHT22;10404;51.468;6.762;2023-11-22T14:32:40;5.80;78.70
20492;DHT22;10404;51.468;6.762;2023-11-22T14:35:08;5.70;78.70
20492;DHT22;10404;51.468;6.762;2023-11-22T14:37:34;5.70;78.80
20492;DHT22;10404;51.468;6.762;2023-11-22T14:40:01;5.70;78.80
20492;DHT22;10404;51.468;6.762;2023-11-22T14:42:30;5.70;78.80
20492;DHT22;10404;51.468;6.762;2023-11-22T14:44:57;5.80;79.00
20492;DHT22;10404;51.468;6.762;2023-11-22T14:47:23;5.70;79.00
20492;DHT22;10404;51.468;6.762;2023-11-22T14:49:53;5.80;79.00
20492;DHT22;10404;51.468;6.762;2023-11-22T14:52:20;5.80;78.90
20492;DHT22;10404;51.468;6.762;2023-11-22T14:54:46;5.80;79.00
20492;DHT22;10404;51.468;6.762;2023-11-22T14:57:13;5.80;78.90
20492;DHT22;10404;51.468;6.762;2023-11-22T14:59:39;5.80;79.00
20492;DHT22;10404;51.468;6.762;2023-11-22T15:02:05;5.70;79.00
20492;DHT22;10404;51.468;6.762;2023-11-22T15:04:34;5.70;78.90
20492;DHT22;10404;51.468;6.762;2023-11-22T15:07:02;5.70;78.70
20492;DHT22;10404;51.468;6.762;2023-11-22T15:09:28;5.80;78.80
20492;DHT22;10404;51.468;6.762;2023-11-22T15:11:53;5.80;78.80
20492;DHT22;10404;51.468;6.762;2023-11-22T15:14:20;5.80;78.90
20492;DHT22;10404;51.468;6.762;2023-11-22T15:16:48;5.70;78.80
20492;DHT22;10404;51.468;6.762;2023-11-22T15:19:13;5.70;78.80
20492;DHT22;10404;51.468;6.762;2023-11-22T15:21:39;5.70;78.90
20492;DHT22;10404;51.468;6.762;2023-11-22T15:24:05;5.70;79.00
20492;DHT22;10404;51.468;6.762;2023-11-22T15:26:30;5.70;79.00
20492;DHT22;10404;51.468;6.762;2023-11-22T15:28:56;5.70;78.90
20492;DHT22;10404;51.468;6.762;2023-11-22T15:31:22;5.70;78.90
20492;DHT22;10404;51.468;6.762;2023-11-22T15:33:48;5.70;79.00
20492;DHT22;10404;51.468;6.762;2023-11-22T15:36:14;5.70;79.00
20492;DHT22;10404;51.468;6.762;2023-11-22T15:38:40;5.80;79.00
20492;DHT22;10404;51.468;6.762;2023-11-22T15:41:06;5.70;79.00
20492;DHT22;10404;51.468;6.762;2023-11-22T15:43:34;5.70;78.90
20492;DHT22;10404;51.468;6.762;2023-11-22T15:45:59;5.70;79.10
20492;DHT22;10404;51.468;6.762;2023-11-22T15:48:25;5.70;79.00